createdAt,value
2019-02-23T00:02:23.909Z,63.30
2019-02-23T00:05:24.112Z,62.13
2019-02-23T00:07:53.613Z,56.20
2019-02-23T00:10:29.568Z,49.87
2019-02-23T00:12:58.154Z,48.93
2019-02-23T00:15:27.546Z,48.75
2019-02-23T00:18:26.871Z,47.47
2019-02-23T00:20:55.743Z,46.53
2019-02-23T00:23:57.709Z,46.95
2019-02-23T00:26:26.806Z,51.55
2019-02-23T00:29:26.924Z,52.20
2019-02-23T00:31:55.813Z,49.77
2019-02-23T00:34:30.738Z,50.80
2019-02-23T00:36:59.959Z,49.17
2019-02-23T00:39:28.827Z,55.13
2019-02-23T00:44:56.298Z,54.70
2019-02-23T00:47:55.302Z,51.40
2019-02-23T00:50:24.322Z,50.97
2019-02-23T00:53:23.121Z,46.98
2019-02-23T00:55:51.970Z,46.47
2019-02-23T00:58:31.194Z,45.50
2019-02-23T01:00:59.883Z,45.80
2019-02-23T01:03:28.775Z,42.97
2019-02-23T01:06:25.405Z,42.93
2019-02-23T01:08:54.192Z,43.67
2019-02-23T01:11:56.722Z,43.93
2019-02-23T01:14:28.323Z,43.53
2019-02-23T01:19:52.242Z,44.63
2019-02-23T01:22:29.013Z,45.30
2019-02-23T01:24:58.090Z,44.23
2019-02-23T01:27:27.642Z,46.83
2019-02-23T01:29:57.702Z,49.40
2019-02-23T01:32:27.926Z,46.60
2019-02-23T01:34:56.818Z,48.10
2019-02-23T01:37:25.825Z,49.27
2019-02-23T01:40:15.792Z,49.05
2019-02-23T01:42:44.710Z,49.07
2019-02-23T01:45:13.189Z,46.03
2019-02-23T01:47:42.150Z,48.73
2019-02-23T01:50:11.693Z,48.20
2019-02-23T01:52:40.538Z,49.37
2019-02-23T01:55:12.297Z,50.07
2019-02-23T01:57:41.190Z,50.43
2019-02-23T02:03:09.482Z,50.50
2019-02-23T02:05:46.278Z,52.70
2019-02-23T02:08:15.155Z,50.30
2019-02-23T02:10:44.261Z,49.50
2019-02-23T02:13:12.934Z,51.33
2019-02-23T02:15:41.911Z,50.83
2019-02-23T02:18:10.807Z,49.85
2019-02-23T02:20:56.402Z,50.93
2019-02-23T02:23:27.754Z,51.70
2019-02-23T02:26:26.733Z,52.20
2019-02-23T02:28:55.302Z,51.98
2019-02-23T02:31:31.676Z,53.45
2019-02-23T02:34:04.302Z,54.50
2019-02-23T02:36:33.338Z,50.53
2019-02-23T02:39:04.789Z,50.63
2019-02-23T02:41:35.423Z,55.75
2019-02-23T02:44:05.339Z,55.80
2019-02-23T02:46:33.918Z,53.65
2019-02-23T02:49:03.023Z,54.17
2019-02-23T02:51:32.224Z,55.92
2019-02-23T02:54:01.055Z,56.40
2019-02-23T02:57:00.304Z,58.30
2019-02-23T02:59:29.897Z,61.20
2019-02-23T03:01:59.000Z,60.57
2019-02-23T03:04:28.190Z,64.03
2019-02-23T03:06:57.382Z,62.48
2019-02-23T03:09:26.378Z,66.97
2019-02-23T03:11:55.284Z,63.93
2019-02-23T03:14:43.304Z,63.80
2019-02-23T03:17:12.299Z,64.97
2019-02-23T03:19:48.549Z,63.80
2019-02-23T03:22:17.347Z,66.43
2019-02-23T03:24:46.580Z,68.73
2019-02-23T03:27:15.582Z,71.62
2019-02-23T03:29:44.457Z,73.63
2019-02-23T03:32:13.026Z,71.20
2019-02-23T03:34:41.893Z,69.80
2019-02-23T03:37:10.481Z,69.13
2019-02-23T03:39:39.366Z,70.77
2019-02-23T03:42:26.285Z,69.27
2019-02-23T03:44:55.163Z,70.17
2019-02-23T03:47:31.124Z,69.60
2019-02-23T03:49:59.697Z,72.70
2019-02-23T03:52:28.695Z,68.50
2019-02-23T03:54:57.273Z,73.20
2019-02-23T03:57:28.421Z,74.50
2019-02-23T03:59:57.509Z,70.25
2019-02-23T04:02:56.406Z,70.33
2019-02-23T04:05:26.028Z,73.28
2019-02-23T04:08:24.294Z,72.12
2019-02-23T04:10:53.379Z,68.20
2019-02-23T04:13:31.277Z,73.80
2019-02-23T04:16:00.474Z,71.15
2019-02-23T04:18:29.366Z,68.67
2019-02-23T04:23:55.307Z,77.37
2019-02-23T04:29:24.234Z,77.47
2019-02-23T04:32:23.717Z,78.37
2019-02-23T04:34:52.232Z,73.85
2019-02-23T04:37:28.661Z,77.30
2019-02-23T04:39:57.654Z,83.40
2019-02-23T04:42:26.645Z,82.80
2019-02-23T04:44:55.638Z,80.87
2019-02-23T04:47:24.447Z,85.60
2019-02-23T04:50:18.098Z,84.37
2019-02-23T04:52:48.009Z,86.43
2019-02-23T04:55:45.461Z,86.00
2019-02-23T05:00:51.335Z,79.82
2019-02-23T05:03:19.917Z,78.47
2019-02-23T05:05:48.702Z,79.22
2019-02-23T05:08:27.222Z,80.33
2019-02-23T05:10:56.119Z,82.10
2019-02-23T05:16:23.903Z,88.53
2019-02-23T05:19:26.468Z,90.77
2019-02-23T05:21:55.350Z,93.90
2019-02-23T05:24:30.185Z,97.50
2019-02-23T05:26:59.280Z,95.75
2019-02-23T05:29:28.293Z,95.67
2019-02-23T05:31:57.157Z,95.47
2019-02-23T05:34:26.865Z,91.60
2019-02-23T05:36:55.754Z,89.33
2019-02-23T05:39:24.337Z,87.90
2019-02-23T05:41:53.647Z,87.63
2019-02-23T05:44:28.460Z,90.53
2019-02-23T05:46:57.461Z,88.67
2019-02-23T05:49:36.651Z,88.65
2019-02-23T05:52:04.214Z,83.87
2019-02-23T05:54:33.325Z,86.53
2019-02-23T05:57:26.833Z,89.95
2019-02-23T05:59:55.704Z,84.00
2019-02-23T06:05:23.679Z,81.57
2019-02-23T06:08:26.132Z,90.27
2019-02-23T06:10:56.683Z,84.70
2019-02-23T06:13:31.782Z,86.67
2019-02-23T06:16:00.710Z,84.40
2019-02-23T06:18:29.622Z,79.90
2019-02-23T06:20:58.387Z,83.30
2019-02-23T06:23:30.549Z,79.17
2019-02-23T06:25:59.667Z,80.77
2019-02-23T06:28:28.530Z,79.87
2019-02-23T06:30:57.453Z,81.27
2019-02-23T06:33:26.619Z,83.73
2019-02-23T06:35:55.505Z,83.00
2019-02-23T06:38:24.295Z,77.00
2019-02-23T06:40:52.984Z,82.35
2019-02-23T06:43:21.559Z,81.50
2019-02-23T06:45:50.453Z,77.20
2019-02-23T06:48:19.941Z,80.47
2019-02-23T06:50:50.274Z,80.38
2019-02-23T06:53:19.162Z,74.90
2019-02-23T06:56:10.261Z,76.07
2019-02-23T06:58:39.163Z,78.10
2019-02-23T07:01:14.117Z,75.13
2019-02-23T07:03:43.094Z,72.50
2019-02-23T07:06:11.580Z,73.07
2019-02-23T07:08:40.471Z,71.77
2019-02-23T07:11:10.669Z,69.67
2019-02-23T07:13:58.219Z,70.30
2019-02-23T07:16:27.607Z,69.93
2019-02-23T07:19:29.665Z,69.85
2019-02-23T07:21:58.553Z,67.93
2019-02-23T07:24:33.901Z,69.30
2019-02-23T07:27:02.810Z,69.30
2019-02-23T07:29:31.778Z,64.55
2019-02-23T07:32:01.106Z,64.40
2019-02-23T07:34:33.958Z,64.60
2019-02-23T07:37:02.745Z,63.73
2019-02-23T07:42:30.217Z,63.03
2019-02-23T07:44:59.113Z,66.27
2019-02-23T07:47:29.533Z,61.60
2019-02-23T07:49:59.434Z,60.07
2019-02-23T07:52:28.571Z,63.08
2019-02-23T07:54:57.581Z,64.20
2019-02-23T07:57:27.738Z,62.80
2019-02-23T08:00:21.321Z,60.43
2019-02-23T08:02:50.422Z,61.88
2019-02-23T08:08:17.582Z,59.60
2019-02-23T08:11:17.393Z,61.87
2019-02-23T08:13:46.290Z,60.60
2019-02-23T08:16:22.133Z,60.17
2019-02-23T08:18:50.729Z,59.80
2019-02-23T08:21:19.414Z,57.50
2019-02-23T08:23:47.991Z,57.53
2019-02-23T08:26:23.173Z,58.43
2019-02-23T08:28:52.116Z,57.73
2019-02-23T08:31:20.900Z,55.50
2019-02-23T08:33:55.316Z,55.50
2019-02-23T08:36:45.710Z,55.33
2019-02-23T08:39:14.732Z,52.87
2019-02-23T08:41:49.552Z,54.15
2019-02-23T08:47:19.769Z,50.80
2019-02-23T08:50:22.044Z,52.30
2019-02-23T08:52:52.488Z,52.43
2019-02-23T08:55:51.889Z,52.17
2019-02-23T08:58:20.450Z,51.57
2019-02-23T09:01:19.180Z,52.10
2019-02-23T09:04:06.896Z,47.55
2019-02-23T09:06:35.904Z,49.30
2019-02-23T09:09:08.218Z,46.40
2019-02-23T09:11:37.125Z,47.43
2019-02-23T09:16:54.557Z,46.03
2019-02-23T09:22:23.352Z,43.90
2019-02-23T09:27:50.939Z,47.45
2019-02-23T09:32:57.320Z,45.58
2019-02-23T09:35:27.028Z,46.75
2019-02-23T09:37:55.918Z,46.17
2019-02-23T09:40:28.622Z,47.65
2019-02-23T09:42:57.919Z,45.98
2019-02-23T09:48:25.978Z,42.73
2019-02-23T09:51:24.269Z,40.28
2019-02-23T09:53:53.413Z,39.83
2019-02-23T09:56:28.666Z,40.97
2019-02-23T09:58:59.045Z,43.67
2019-02-23T10:01:30.068Z,41.83
2019-02-23T10:04:26.645Z,42.15
2019-02-23T10:06:55.495Z,42.20
2019-02-23T10:12:22.549Z,41.93
2019-02-23T10:17:58.017Z,40.70
2019-02-23T10:20:30.337Z,43.03
2019-02-23T10:22:59.478Z,43.58
2019-02-23T10:25:28.695Z,42.10
2019-02-23T10:27:59.239Z,43.65
2019-02-23T10:30:28.302Z,42.13
2019-02-23T10:32:57.492Z,39.85
2019-02-23T10:35:26.713Z,42.85
2019-02-23T10:37:55.589Z,42.93
2019-02-23T10:40:24.263Z,42.30
2019-02-23T10:42:53.154Z,42.77
2019-02-23T10:45:22.037Z,40.95
2019-02-23T10:47:51.242Z,41.37
2019-02-23T10:50:20.021Z,40.87
2019-02-23T10:52:48.605Z,42.23
2019-02-23T10:55:17.298Z,42.43
2019-02-23T10:57:46.489Z,43.33
2019-02-23T11:00:34.039Z,42.90
2019-02-23T11:03:02.701Z,42.62
2019-02-23T11:08:23.021Z,41.25
2019-02-23T11:13:51.399Z,40.25
2019-02-23T11:16:27.606Z,40.90
2019-02-23T11:18:56.855Z,41.08
2019-02-23T11:21:26.030Z,40.33
2019-02-23T11:23:54.636Z,40.25
2019-02-23T11:26:23.653Z,39.60
2019-02-23T11:29:01.218Z,38.85
2019-02-23T11:31:30.140Z,41.03
2019-02-23T11:34:29.314Z,40.15
2019-02-23T11:36:58.201Z,39.08
2019-02-23T11:39:32.538Z,40.03
2019-02-23T11:42:01.410Z,39.83
2019-02-23T11:44:29.992Z,37.48
2019-02-23T11:47:00.486Z,40.92
2019-02-23T11:49:31.155Z,38.80
2019-02-23T11:52:21.853Z,37.17
2019-02-23T11:54:51.041Z,39.78
2019-02-23T11:57:49.735Z,38.08
2019-02-23T12:00:19.079Z,38.63
2019-02-23T12:02:54.265Z,39.77
2019-02-23T12:05:23.255Z,37.48
2019-02-23T12:07:52.454Z,38.08
2019-02-23T12:10:28.105Z,38.23
2019-02-23T12:12:56.786Z,38.73
2019-02-23T12:18:21.697Z,37.28
2019-02-23T12:23:49.373Z,35.60
2019-02-23T12:28:57.294Z,36.42
2019-02-23T12:31:26.249Z,35.20
2019-02-23T12:34:28.993Z,36.83
2019-02-23T12:36:57.859Z,35.05
2019-02-23T12:42:27.555Z,36.03
2019-02-23T12:45:28.635Z,35.50
2019-02-23T12:47:57.519Z,36.30
2019-02-23T12:50:33.476Z,32.40
2019-02-23T12:53:02.567Z,36.50
2019-02-23T12:55:32.177Z,34.78
2019-02-23T13:00:56.061Z,33.50
2019-02-23T13:04:09.679Z,33.85
2019-02-23T13:06:28.462Z,34.23
2019-02-23T13:11:58.534Z,32.88
2019-02-23T13:14:34.224Z,32.97
2019-02-23T13:17:20.844Z,32.73
2019-02-23T13:20:07.346Z,31.17
2019-02-23T13:22:49.660Z,30.03
2019-02-23T13:25:20.295Z,30.75
2019-02-23T13:27:54.799Z,31.50
2019-02-23T13:30:25.009Z,31.10
2019-02-23T13:33:20.118Z,30.17
2019-02-23T13:36:06.835Z,29.77
2019-02-23T13:38:43.906Z,29.72
2019-02-23T13:41:22.717Z,30.30
2019-02-23T13:44:09.546Z,30.23
2019-02-23T13:49:16.742Z,28.85
2019-02-23T13:51:47.297Z,28.10
2019-02-23T13:54:20.098Z,28.93
2019-02-23T13:56:57.348Z,27.60
2019-02-23T13:59:33.366Z,29.10
2019-02-23T14:02:12.887Z,26.87
2019-02-23T14:04:42.925Z,26.60
2019-02-23T14:07:16.212Z,26.73
2019-02-23T14:09:58.542Z,26.05
2019-02-23T14:12:28.765Z,27.07
2019-02-23T14:15:05.210Z,26.87
2019-02-23T14:17:44.538Z,27.73
2019-02-23T15:10:52.186Z,28.97
2019-02-23T15:13:29.371Z,30.33
2019-02-23T15:18:45.587Z,29.77
2019-02-23T15:21:27.496Z,29.15
2019-02-23T15:24:00.975Z,29.55
2019-02-23T15:26:46.551Z,29.70
2019-02-23T15:29:19.997Z,26.55
2019-02-23T15:31:55.797Z,25.92
2019-02-23T15:34:40.919Z,29.97
2019-02-23T15:37:22.782Z,44.60
2019-02-23T15:39:53.114Z,39.00
2019-02-23T15:42:26.169Z,33.37
2019-02-23T15:45:16.082Z,31.25
2019-02-23T15:47:46.706Z,32.40
2019-02-23T15:50:15.681Z,28.30
2019-02-23T15:52:44.581Z,29.12
2019-02-23T15:55:25.392Z,28.83
2019-02-23T15:57:43.903Z,28.80
2019-02-23T16:00:16.148Z,27.73
2019-02-23T16:02:45.717Z,27.20
2019-02-23T16:05:15.882Z,26.63
2019-02-23T16:07:44.845Z,27.93
2019-02-23T16:10:20.222Z,28.55
2019-02-23T16:12:49.488Z,28.60
2019-02-23T16:15:18.465Z,27.82
2019-02-23T16:17:47.490Z,27.70
2019-02-23T16:20:16.712Z,26.68
2019-02-23T16:25:43.545Z,24.27
2019-02-23T16:28:45.579Z,25.47
2019-02-23T16:31:14.513Z,25.60
2019-02-23T16:34:13.418Z,25.17
2019-02-23T16:36:42.392Z,25.10
2019-02-23T16:39:18.439Z,26.00
2019-02-23T16:41:47.294Z,26.07
2019-02-23T16:44:15.806Z,26.33
2019-02-23T16:46:46.474Z,24.97
2019-02-23T16:49:17.602Z,26.80
2019-02-23T16:54:47.132Z,28.80
2019-02-23T16:57:17.401Z,34.57
2019-02-23T16:59:46.310Z,30.25
2019-02-23T17:02:14.903Z,27.23
2019-02-23T17:04:53.187Z,28.40
2019-02-23T17:07:14.010Z,30.50
2019-02-23T17:09:43.013Z,28.62
2019-02-23T17:15:06.963Z,29.55
2019-02-23T17:17:35.470Z,28.50
2019-02-23T17:20:06.596Z,28.40
2019-02-23T17:22:37.715Z,27.80
2019-02-23T17:25:06.366Z,29.37
2019-02-23T17:27:36.961Z,29.07
2019-02-23T17:32:40.225Z,34.65
2019-02-23T17:35:10.444Z,35.53
2019-02-23T17:37:39.588Z,38.28
2019-02-23T17:40:08.378Z,28.23
2019-02-23T17:42:36.953Z,34.63
2019-02-23T17:45:07.944Z,32.62
2019-02-23T17:47:37.408Z,30.43
2019-02-23T17:50:07.921Z,30.44
2019-02-23T17:52:37.055Z,34.85
2019-02-23T17:55:07.376Z,32.00
2019-02-23T17:57:36.229Z,38.57
2019-02-23T18:00:08.397Z,38.24
2019-02-23T18:02:40.985Z,37.87
2019-02-23T18:05:09.494Z,34.43
2019-02-23T18:07:38.346Z,35.25
2019-02-23T18:10:06.946Z,33.15
2019-02-23T18:15:13.413Z,36.77
2019-02-23T18:17:42.006Z,36.90
2019-02-23T18:20:11.601Z,37.10
2019-02-23T18:22:45.910Z,35.20
2019-02-23T18:25:16.845Z,37.97
2019-02-23T18:28:49.448Z,36.87
2019-02-23T18:30:21.178Z,35.80
2019-02-23T18:32:50.090Z,37.10
2019-02-23T18:35:18.655Z,37.07
2019-02-23T18:37:47.233Z,40.60
2019-02-23T18:40:15.814Z,38.17
2019-02-23T18:42:44.912Z,39.50
2019-02-23T18:45:13.923Z,39.42
2019-02-23T18:47:42.480Z,37.98
2019-02-23T18:50:12.419Z,39.27
2019-02-23T18:52:41.329Z,38.55
2019-02-23T18:55:09.873Z,37.90
2019-02-23T18:58:26.776Z,35.60
2019-02-23T19:00:31.286Z,38.13
2019-02-23T19:03:00.157Z,37.77
2019-02-23T19:05:29.167Z,61.40
2019-02-23T19:08:00.247Z,49.70
2019-02-23T19:10:28.822Z,47.60
2019-02-23T19:13:03.948Z,48.25
2019-02-23T19:15:32.748Z,49.57
2019-02-23T19:18:01.824Z,48.30
2019-02-23T19:20:36.874Z,50.67
2019-02-23T19:23:05.907Z,54.90
2019-02-23T19:25:35.041Z,55.00
2019-02-23T19:28:03.647Z,62.27
2019-02-23T19:30:33.134Z,61.00
2019-02-23T19:33:02.463Z,62.10
2019-02-23T19:35:34.482Z,64.85
2019-02-23T19:38:03.501Z,62.93
2019-02-23T19:40:32.718Z,65.60
2019-02-23T19:43:01.971Z,64.97
2019-02-23T19:45:31.590Z,62.13
2019-02-23T19:48:13.058Z,60.17
2019-02-23T19:50:43.309Z,61.23
2019-02-23T19:56:10.494Z,60.40
2019-02-23T19:58:39.346Z,63.70
2019-02-23T20:01:07.989Z,60.38
2019-02-23T20:03:36.817Z,56.37
2019-02-23T20:06:06.117Z,64.52
2019-02-23T20:08:35.306Z,72.12
2019-02-23T20:11:03.892Z,69.77
2019-02-23T20:13:32.787Z,75.07
2019-02-23T20:16:12.241Z,88.17
2019-02-23T20:18:41.512Z,80.32
2019-02-23T20:24:09.018Z,99.43
2019-02-23T20:26:46.177Z,98.63
2019-02-23T20:29:15.074Z,77.87
2019-02-23T20:31:50.099Z,66.70
2019-02-23T20:34:18.980Z,63.50
2019-02-23T20:37:17.978Z,64.25
2019-02-23T20:39:48.711Z,66.67
2019-02-23T20:42:44.534Z,68.27
2019-02-23T20:45:13.131Z,65.77
2019-02-23T20:47:42.008Z,63.57
2019-02-23T20:50:10.991Z,57.53
2019-02-23T20:52:39.903Z,60.70
2019-02-23T20:55:09.084Z,61.10
2019-02-23T20:57:38.074Z,60.23
2019-02-23T21:03:06.358Z,61.24
2019-02-23T21:05:35.144Z,61.47
2019-02-23T21:08:03.941Z,60.75
2019-02-23T21:10:33.049Z,61.70
2019-02-23T21:13:02.123Z,66.45
2019-02-23T21:15:32.265Z,65.17
2019-02-23T21:18:02.218Z,62.88
2019-02-23T21:20:32.478Z,62.47
2019-02-23T21:23:04.930Z,66.95
2019-02-23T21:25:33.749Z,70.67
2019-02-23T21:28:02.628Z,72.00
2019-02-23T21:30:31.518Z,68.30
2019-02-23T21:33:00.907Z,66.45
2019-02-23T21:35:30.010Z,66.40
2019-02-23T21:37:59.049Z,65.30
2019-02-23T21:40:28.017Z,65.10
2019-02-23T21:42:56.883Z,78.50
2019-02-23T21:45:25.878Z,78.40
2019-02-23T21:47:54.458Z,74.37
2019-02-23T21:50:23.047Z,70.57
2019-02-23T21:52:52.348Z,65.15
2019-02-23T21:55:21.046Z,63.77
2019-02-23T22:00:39.099Z,68.67
2019-02-23T22:03:07.991Z,68.35
2019-02-23T22:05:36.961Z,70.07
2019-02-23T22:08:06.813Z,66.53
2019-02-23T22:10:35.464Z,68.25
2019-02-23T22:13:05.996Z,75.25
2019-02-23T22:15:34.981Z,72.03
2019-02-23T22:18:05.096Z,74.10
2019-02-23T22:20:34.218Z,74.22
2019-02-23T22:23:03.283Z,70.13
2019-02-23T22:25:53.581Z,67.27
2019-02-23T22:28:22.582Z,63.05
2019-02-23T22:31:22.091Z,62.57
2019-02-23T22:33:52.596Z,60.10
2019-02-23T22:39:15.154Z,63.63
2019-02-23T22:41:49.555Z,65.43
2019-02-23T22:44:14.260Z,65.93
2019-02-23T22:46:43.157Z,66.17
2019-02-23T22:49:11.861Z,66.77
2019-02-23T22:51:48.508Z,69.10
2019-02-23T22:54:17.092Z,67.97
2019-02-23T22:57:18.386Z,69.25
2019-02-23T22:59:47.333Z,72.77
2019-02-23T23:02:46.659Z,84.60
2019-02-23T23:05:15.627Z,79.43
2019-02-23T23:07:44.737Z,73.70
2019-02-23T23:10:13.525Z,88.83
2019-02-23T23:12:42.645Z,81.00
2019-02-23T23:15:11.186Z,87.53
2019-02-23T23:17:41.918Z,77.77
2019-02-23T23:20:10.809Z,71.95
2019-02-23T23:22:39.794Z,66.23
2019-02-23T23:27:49.689Z,57.23
2019-02-23T23:30:18.240Z,55.47
2019-02-23T23:32:47.233Z,54.23
2019-02-23T23:35:15.833Z,53.90
2019-02-23T23:37:45.726Z,56.13
2019-02-23T23:40:14.316Z,63.17
2019-02-23T23:42:43.212Z,61.33
2019-02-23T23:45:12.082Z,64.17
2019-02-23T23:47:47.973Z,63.63
2019-02-23T23:50:16.449Z,64.97
2019-02-23T23:52:45.364Z,64.30
2019-02-23T23:55:14.314Z,63.55
2019-02-23T23:57:43.391Z,59.70
